Salem Township, Maine
Current Conditions -  °F | °C
As of 3:15 AM on Saturday 25 Oct 2014 (Local Time) from KWVL Reporting Station
Overcast Overcast  
Wind Chill:   Ceiling: 6000
Heat Index:   Visibility: 10mi
Dew Point:   Wind: 8mph
Humidity: 57%   Direction: 320°NW
Pressure: 29.65"   Gusts: NA
Location:  44.8564°N, 70.2117°W
Report Text: KWVL 250715Z 32007KT 10SM OVC060 09/01 A2965 RMK AO1
Loading
Personal Weather Stations






























Interactive Weather Map
Tropical Storm Tracking
New forecast layout! Learn more

10-Day Weather Forecast

Advertisements
Track Severe Weather on mobile